createdAt,value
2019-03-22T09:44:42.960Z,39.538574
2019-03-22T09:44:45.432Z,39.935303
2019-03-22T09:44:54.960Z,39.135742
2019-03-22T09:45:05.183Z,38.94043
2019-03-22T09:45:15.419Z,39.135742
2019-03-22T09:45:25.659Z,39.239502
2019-03-22T09:45:35.954Z,39.135742
2019-03-22T09:45:46.073Z,39.135742
2019-03-22T09:46:57.692Z,40.216064
2019-03-22T09:47:07.752Z,40.014648
2019-03-22T09:47:17.725Z,39.318848
2019-03-22T09:47:27.730Z,39.520264
2019-03-22T09:47:37.742Z,39.715576
2019-03-22T09:47:47.809Z,39.221191
2019-03-22T09:47:57.811Z,39.117432
2019-03-22T09:48:07.935Z,38.818359
2019-03-22T09:48:17.804Z,38.623047
2019-03-22T09:48:27.922Z,38.922119
2019-03-22T09:48:37.919Z,39.019775
2019-03-22T09:48:48.035Z,38.323975
2019-03-22T09:48:57.951Z,38.323975
2019-03-22T09:49:07.987Z,38.220215
2019-03-22T09:49:17.974Z,38.018799
2019-03-22T09:49:28.132Z,38.220215
2019-03-22T09:49:38.169Z,38.720703
2019-03-22T09:49:50.946Z,38.421631
2019-03-22T09:49:58.132Z,38.720703
2019-03-22T09:50:08.143Z,38.818359
2019-03-22T09:50:18.169Z,38.720703
2019-03-22T09:50:28.254Z,38.922119
2019-03-22T09:50:38.182Z,38.922119
2019-03-22T09:50:48.312Z,38.720703
2019-03-22T09:50:58.354Z,38.519287
2019-03-22T09:51:08.407Z,38.220215
2019-03-22T09:51:18.585Z,38.323975
2019-03-22T09:51:28.514Z,38.519287
2019-03-22T09:51:38.589Z,38.421631
2019-03-22T09:51:48.623Z,38.623047
2019-03-22T09:51:59.596Z,38.922119
2019-03-22T09:52:09.621Z,38.818359
2019-03-22T09:52:19.643Z,38.421631
2019-03-22T09:52:29.610Z,38.122559
2019-03-22T09:52:39.642Z,38.421631
2019-03-22T09:52:49.659Z,38.720703
2019-03-22T09:52:59.744Z,38.220215
2019-03-22T09:53:09.775Z,38.421631
2019-03-22T09:53:19.771Z,38.623047
2019-03-22T09:53:30.855Z,38.720703
2019-03-22T09:53:40.806Z,38.720703
2019-03-22T09:53:50.863Z,38.421631
2019-03-22T09:54:00.878Z,38.623047
2019-03-22T09:54:10.854Z,38.623047
2019-03-22T09:54:20.842Z,38.623047
2019-03-22T09:54:30.946Z,38.439941
2019-03-22T09:54:41.003Z,38.220215
2019-03-22T09:54:51.030Z,38.519287
2019-03-22T09:55:12.412Z,38.720703
2019-03-22T09:55:14.240Z,38.739014
2019-03-22T09:55:22.918Z,38.623047
2019-03-22T09:55:32.962Z,38.537598
2019-03-22T09:55:42.882Z,38.641357
2019-03-22T09:55:52.942Z,38.537598
2019-03-22T09:56:02.943Z,38.238525
2019-03-22T09:56:13.021Z,38.238525
2019-03-22T09:56:23.042Z,38.140869
2019-03-22T09:56:46.009Z,38.238525
2019-03-22T09:56:47.176Z,38.342285
2019-03-22T09:56:54.090Z,38.439941
2019-03-22T09:57:04.204Z,38.342285
2019-03-22T09:57:14.123Z,38.238525
2019-03-22T09:57:24.163Z,38.342285
2019-03-22T09:57:34.122Z,38.342285
2019-03-22T09:57:45.045Z,38.238525
2019-03-22T09:57:54.971Z,38.140869
2019-03-22T09:58:04.941Z,38.037109
2019-03-22T09:58:14.954Z,38.140869
2019-03-22T09:58:24.931Z,38.037109
2019-03-22T09:58:34.938Z,38.439941
2019-03-22T09:58:44.962Z,38.342285
2019-03-22T09:58:55.066Z,38.037109
2019-03-22T09:59:05.206Z,38.140869
2019-03-22T09:59:15.201Z,38.140869
2019-03-22T09:59:25.152Z,38.140869
2019-03-22T09:59:35.239Z,38.037109
2019-03-22T09:59:45.297Z,38.238525
2019-03-22T09:59:55.343Z,38.238525
2019-03-22T10:00:05.350Z,38.238525
2019-03-22T10:00:15.387Z,38.238525
2019-03-22T10:00:25.343Z,38.238525
2019-03-22T10:00:35.427Z,38.140869
2019-03-22T10:00:48.347Z,38.037109
2019-03-22T10:00:55.542Z,38.140869
2019-03-22T10:01:05.561Z,38.140869
2019-03-22T10:01:23.344Z,38.238525
2019-03-22T10:01:26.536Z,38.342285
2019-03-22T10:01:36.470Z,38.140869
2019-03-22T10:01:46.461Z,38.140869
2019-03-22T10:01:56.422Z,38.037109
2019-03-22T10:02:06.454Z,38.037109
2019-03-22T10:02:16.567Z,38.140869
2019-03-22T10:02:26.523Z,38.238525
2019-03-22T10:02:36.542Z,38.342285
2019-03-22T10:02:46.545Z,38.238525
2019-03-22T10:02:56.611Z,38.140869
2019-03-22T10:03:06.611Z,38.238525
2019-03-22T10:03:16.698Z,38.342285
2019-03-22T10:03:26.629Z,38.238525
2019-03-22T10:03:36.683Z,38.140869
2019-03-22T10:03:46.713Z,38.238525
2019-03-22T10:03:56.793Z,38.238525
2019-03-22T10:04:06.780Z,38.140869
2019-03-22T10:04:16.867Z,38.140869
2019-03-22T10:04:26.779Z,38.140869
2019-03-22T10:04:36.938Z,38.140869
2019-03-22T10:04:46.855Z,38.140869
2019-03-22T10:04:56.942Z,38.140869
2019-03-22T10:05:06.971Z,38.238525
2019-03-22T10:05:17.114Z,38.238525
2019-03-22T10:05:27.122Z,38.238525
2019-03-22T10:05:37.101Z,38.140869
2019-03-22T10:05:47.099Z,38.037109
2019-03-22T10:05:57.075Z,38.140869
2019-03-22T10:06:07.099Z,38.140869
2019-03-22T10:06:17.285Z,38.140869
2019-03-22T10:06:27.242Z,38.140869
2019-03-22T10:06:37.249Z,38.140869
2019-03-22T10:06:47.222Z,38.140869
2019-03-22T10:06:57.265Z,38.140869
2019-03-22T10:07:07.338Z,38.140869
2019-03-22T10:07:17.352Z,38.140869
2019-03-22T10:07:27.409Z,38.238525
2019-03-22T10:07:37.387Z,38.256836
2019-03-22T10:07:50.005Z,38.238525
2019-03-22T10:07:57.510Z,38.360596
2019-03-22T10:08:07.511Z,38.360596
2019-03-22T10:08:17.609Z,38.360596
2019-03-22T10:08:27.584Z,38.256836
2019-03-22T10:08:37.648Z,38.360596
2019-03-22T10:08:47.730Z,38.458252
2019-03-22T10:08:57.678Z,38.360596
2019-03-22T10:09:07.674Z,38.360596
2019-03-22T10:09:17.742Z,38.256836
2019-03-22T10:09:27.731Z,38.360596
2019-03-22T10:09:37.970Z,38.360596
2019-03-22T10:09:47.982Z,38.360596
2019-03-22T10:09:58.002Z,38.256836
2019-03-22T10:10:07.971Z,38.360596
2019-03-22T10:10:18.040Z,38.256836
2019-03-22T10:10:28.140Z,38.360596
2019-03-22T10:10:38.098Z,38.256836
2019-03-22T10:10:48.166Z,38.256836
2019-03-22T10:10:58.222Z,38.256836
2019-03-22T10:11:08.202Z,38.256836
2019-03-22T10:11:18.220Z,38.360596
2019-03-22T10:11:28.254Z,38.360596
2019-03-22T10:11:38.292Z,38.458252
2019-03-22T10:11:48.361Z,38.360596
2019-03-22T10:11:58.322Z,38.360596
2019-03-22T10:12:08.382Z,38.360596
2019-03-22T10:12:18.372Z,38.360596
2019-03-22T10:12:28.371Z,38.360596
2019-03-22T10:12:38.281Z,38.360596
2019-03-22T10:12:48.384Z,38.360596
2019-03-22T10:12:58.383Z,38.360596
2019-03-22T10:13:08.555Z,38.360596
2019-03-22T10:13:18.420Z,38.458252
2019-03-22T10:13:28.582Z,38.360596
2019-03-22T10:13:38.591Z,38.458252
2019-03-22T10:13:49.582Z,38.458252
2019-03-22T10:14:00.642Z,38.458252
2019-03-22T10:14:10.745Z,38.458252
2019-03-22T10:14:21.651Z,38.458252
2019-03-22T10:14:32.677Z,38.458252
2019-03-22T10:14:43.722Z,38.458252
2019-03-22T10:14:53.822Z,38.458252
2019-03-22T10:15:03.811Z,38.458252
2019-03-22T10:15:13.865Z,38.458252
2019-03-22T10:15:23.897Z,38.458252
2019-03-22T10:15:33.903Z,38.458252
2019-03-22T10:15:43.899Z,38.458252
2019-03-22T10:15:53.891Z,38.458252
2019-03-22T10:16:03.917Z,38.458252
2019-03-22T10:16:13.852Z,38.458252
2019-03-22T10:16:23.985Z,38.555908
2019-03-22T10:16:34.094Z,38.555908
2019-03-22T10:16:44.165Z,38.555908
2019-03-22T10:16:54.218Z,38.555908
2019-03-22T10:17:04.182Z,38.555908
2019-03-22T10:17:14.261Z,38.555908
2019-03-22T10:17:24.339Z,38.458252
2019-03-22T10:17:34.389Z,38.458252
2019-03-22T10:17:44.369Z,38.458252
2019-03-22T10:17:54.385Z,38.555908
2019-03-22T10:18:04.386Z,38.555908
2019-03-22T10:18:14.424Z,38.458252
2019-03-22T10:18:24.389Z,38.458252
2019-03-22T10:18:36.725Z,38.458252
2019-03-22T10:18:44.422Z,38.458252
2019-03-22T10:18:54.504Z,38.458252
2019-03-22T10:19:04.520Z,38.458252
2019-03-22T10:19:14.489Z,38.555908
2019-03-22T10:19:24.561Z,38.555908
2019-03-22T10:19:34.608Z,38.555908
2019-03-22T10:19:44.697Z,38.555908
2019-03-22T10:19:55.069Z,38.555908
2019-03-22T10:20:05.185Z,38.555908
2019-03-22T10:20:15.301Z,38.555908
2019-03-22T10:20:25.481Z,38.555908
2019-03-22T10:20:35.425Z,38.458252
2019-03-22T10:20:45.420Z,38.555908
2019-03-22T10:20:55.384Z,38.458252
2019-03-22T10:21:05.505Z,38.458252
2019-03-22T10:21:22.099Z,38.555908
2019-03-22T10:21:26.442Z,38.458252
2019-03-22T10:21:36.498Z,38.458252
2019-03-22T10:21:46.488Z,38.458252
2019-03-22T10:21:56.526Z,38.458252
2019-03-22T10:22:06.547Z,38.458252
2019-03-22T10:22:16.594Z,38.458252
2019-03-22T10:22:26.632Z,38.458252
2019-03-22T10:22:36.611Z,38.555908
2019-03-22T10:22:46.622Z,38.458252
2019-03-22T10:22:56.706Z,38.555908
2019-03-22T10:23:07.683Z,38.458252
2019-03-22T10:23:17.661Z,38.458252
2019-03-22T10:23:27.629Z,38.458252
2019-03-22T10:23:37.654Z,38.555908
2019-03-22T10:23:47.593Z,38.555908
2019-03-22T10:23:57.751Z,38.555908
2019-03-22T10:24:07.701Z,38.555908
2019-03-22T10:24:17.779Z,38.85498
2019-03-22T10:24:27.731Z,39.459229
2019-03-22T10:24:37.837Z,39.154053
2019-03-22T10:24:47.915Z,38.757324
2019-03-22T10:24:57.789Z,38.659668
2019-03-22T10:25:07.818Z,38.458252
2019-03-22T10:25:17.823Z,38.555908
2019-03-22T10:25:27.831Z,38.458252
2019-03-22T10:25:37.813Z,38.458252
2019-03-22T10:25:47.810Z,38.458252
2019-03-22T10:25:57.947Z,38.458252
2019-03-22T10:26:07.973Z,38.458252
2019-03-22T10:26:18.007Z,38.360596
2019-03-22T10:26:27.957Z,38.360596
2019-03-22T10:26:37.973Z,38.256836
2019-03-22T10:26:48.025Z,38.360596
2019-03-22T10:26:58.052Z,38.360596
2019-03-22T10:27:08.131Z,38.256836
2019-03-22T10:27:18.026Z,38.256836
2019-03-22T10:27:29.140Z,38.256836
2019-03-22T10:27:40.062Z,38.360596
2019-03-22T10:27:50.055Z,38.360596
2019-03-22T10:28:00.072Z,38.360596
2019-03-22T10:28:10.084Z,38.360596
2019-03-22T10:28:20.100Z,38.360596
2019-03-22T10:28:30.212Z,38.256836
2019-03-22T10:28:40.124Z,38.256836
2019-03-22T10:28:50.142Z,38.360596
2019-03-22T10:29:00.225Z,38.360596
2019-03-22T10:29:10.376Z,38.256836
2019-03-22T10:29:20.461Z,38.256836
2019-03-22T10:29:30.534Z,38.256836
2019-03-22T10:29:40.727Z,38.360596
2019-03-22T10:29:50.782Z,38.360596
2019-03-22T10:30:00.748Z,38.256836
2019-03-22T10:30:10.772Z,38.256836
2019-03-22T10:30:20.839Z,38.256836
2019-03-22T10:30:30.887Z,38.256836
2019-03-22T10:30:40.850Z,38.256836
2019-03-22T10:30:50.818Z,38.256836
2019-03-22T10:31:00.961Z,38.256836
2019-03-22T10:31:11.024Z,38.256836
2019-03-22T10:31:21.084Z,38.256836
2019-03-22T10:31:36.859Z,38.256836
2019-03-22T10:31:41.990Z,38.256836
2019-03-22T10:31:52.055Z,38.256836
2019-03-22T10:32:02.063Z,38.256836
2019-03-22T10:32:11.986Z,38.256836
2019-03-22T10:32:23.907Z,38.256836
2019-03-22T10:32:33.052Z,38.256836
2019-03-22T10:32:43.151Z,38.360596
2019-03-22T10:32:53.130Z,38.360596
2019-03-22T10:33:03.101Z,38.256836
2019-03-22T10:33:22.331Z,38.360596
2019-03-22T10:33:24.042Z,38.360596
2019-03-22T10:33:34.144Z,38.360596
2019-03-22T10:33:44.230Z,38.360596
2019-03-22T10:33:54.219Z,38.360596
2019-03-22T10:34:04.306Z,38.360596
2019-03-22T10:34:14.250Z,38.256836
2019-03-22T10:34:24.382Z,38.256836
2019-03-22T10:34:34.302Z,38.256836
2019-03-22T10:34:44.370Z,38.256836
2019-03-22T10:34:54.371Z,38.256836
2019-03-22T10:35:04.436Z,38.256836
2019-03-22T10:35:25.279Z,38.15918
2019-03-22T10:35:26.765Z,38.15918
2019-03-22T10:35:36.396Z,38.15918
2019-03-22T10:35:46.466Z,38.256836
2019-03-22T10:35:56.483Z,38.256836
2019-03-22T10:36:06.522Z,38.256836
2019-03-22T10:36:16.560Z,38.256836
2019-03-22T10:36:26.588Z,38.256836
2019-03-22T10:36:36.625Z,38.256836
2019-03-22T10:36:46.706Z,38.256836
2019-03-22T10:36:56.715Z,38.256836
2019-03-22T10:37:06.729Z,38.256836
2019-03-22T10:37:16.691Z,38.256836
2019-03-22T10:37:26.794Z,38.256836
2019-03-22T10:37:36.808Z,38.256836
2019-03-22T10:37:46.815Z,38.256836
2019-03-22T10:38:00.633Z,38.256836
2019-03-22T10:38:15.812Z,38.256836
2019-03-22T10:38:30.767Z,38.256836
2019-03-22T10:38:32.124Z,38.256836
2019-03-22T10:38:40.637Z,38.256836
2019-03-22T10:38:51.674Z,38.256836
2019-03-22T10:39:01.650Z,38.256836
2019-03-22T10:39:11.610Z,38.256836
2019-03-22T10:39:21.668Z,38.256836
2019-03-22T10:39:31.734Z,38.360596
2019-03-22T10:39:41.829Z,38.360596
2019-03-22T10:39:51.818Z,38.256836
2019-03-22T10:40:01.872Z,38.360596
2019-03-22T10:40:11.831Z,38.360596
2019-03-22T10:40:21.810Z,38.360596
2019-03-22T10:40:31.880Z,38.360596
2019-03-22T10:40:41.857Z,38.360596
2019-03-22T10:40:51.882Z,38.360596
2019-03-22T10:41:01.903Z,38.458252
2019-03-22T10:41:11.911Z,38.458252
2019-03-22T10:41:21.915Z,38.458252
2019-03-22T10:41:31.902Z,38.360596
2019-03-22T10:41:41.889Z,38.360596
2019-03-22T10:41:51.899Z,38.360596
2019-03-22T10:42:01.902Z,38.360596
2019-03-22T10:42:11.982Z,38.360596
2019-03-22T10:42:21.955Z,38.360596
2019-03-22T10:42:31.975Z,38.360596
2019-03-22T10:42:41.914Z,38.458252
2019-03-22T10:42:52.008Z,38.360596
2019-03-22T10:43:01.962Z,38.458252
2019-03-22T10:43:11.964Z,38.458252
2019-03-22T10:43:22.056Z,38.458252
2019-03-22T10:43:32.032Z,38.458252
2019-03-22T10:43:41.924Z,38.458252
2019-03-22T10:43:52.032Z,38.458252
2019-03-22T10:44:02.072Z,38.458252
2019-03-22T10:44:12.013Z,38.458252
2019-03-22T10:44:21.962Z,38.458252
2019-03-22T10:44:31.982Z,38.458252
2019-03-22T10:44:42.099Z,38.458252
2019-03-22T10:44:52.030Z,38.458252
2019-03-22T10:45:02.032Z,38.458252
2019-03-22T10:45:11.993Z,38.458252
2019-03-22T10:45:22.046Z,38.458252
2019-03-22T10:45:31.972Z,38.458252
2019-03-22T10:45:42.004Z,38.458252
2019-03-22T10:45:51.941Z,38.458252
2019-03-22T10:46:01.999Z,38.458252
2019-03-22T10:46:11.974Z,38.458252
2019-03-22T10:46:21.986Z,38.458252
2019-03-22T10:46:32.069Z,38.458252
2019-03-22T10:46:41.989Z,38.458252
2019-03-22T10:46:52.058Z,38.458252
2019-03-22T10:47:02.052Z,38.458252
2019-03-22T10:47:12.062Z,38.458252
2019-03-22T10:47:22.107Z,38.458252
2019-03-22T10:47:32.027Z,38.360596
2019-03-22T10:47:42.102Z,38.360596
2019-03-22T10:47:52.004Z,38.458252
2019-03-22T10:48:02.090Z,38.458252
2019-03-22T10:48:12.211Z,38.458252
2019-03-22T10:48:23.268Z,38.458252
2019-03-22T10:48:33.271Z,38.458252
2019-03-22T10:49:16.459Z,38.458252
2019-03-22T10:49:26.468Z,38.458252
2019-03-22T10:49:36.605Z,38.458252
2019-03-22T10:49:46.677Z,38.458252
2019-03-22T10:49:56.633Z,38.458252
2019-03-22T10:50:06.664Z,38.458252
2019-03-22T10:50:16.718Z,38.458252
2019-03-22T10:50:26.790Z,38.458252
2019-03-22T10:50:36.947Z,38.360596
2019-03-22T10:50:47.169Z,38.458252
2019-03-22T10:50:57.018Z,38.458252
2019-03-22T10:51:07.093Z,38.458252
2019-03-22T10:51:17.050Z,38.360596
2019-03-22T10:51:27.028Z,38.360596
2019-03-22T10:51:37.215Z,38.360596
2019-03-22T10:51:56.408Z,38.360596
2019-03-22T10:51:59.192Z,38.360596
2019-03-22T10:52:09.169Z,38.360596
2019-03-22T10:52:19.256Z,38.360596
2019-03-22T10:52:29.338Z,38.360596
2019-03-22T10:52:39.358Z,38.360596
2019-03-22T10:52:49.336Z,38.360596
2019-03-22T10:52:59.394Z,38.360596
2019-03-22T10:53:09.355Z,38.360596
2019-03-22T10:53:19.370Z,38.360596
2019-03-22T10:53:29.389Z,38.360596
2019-03-22T10:53:39.576Z,38.360596
2019-03-22T10:53:49.699Z,38.458252
2019-03-22T10:53:59.766Z,38.458252
2019-03-22T10:54:09.849Z,38.458252
2019-03-22T10:54:19.907Z,38.458252
2019-03-22T10:54:29.978Z,38.458252
2019-03-22T10:54:40.113Z,38.458252
2019-03-22T10:54:50.230Z,38.458252
2019-03-22T10:55:13.860Z,38.458252
2019-03-22T10:55:23.606Z,38.360596
2019-03-22T10:55:29.558Z,38.360596
2019-03-22T10:55:35.455Z,38.360596
2019-03-22T10:55:43.097Z,38.360596
2019-03-22T10:55:53.108Z,38.360596
2019-03-22T10:56:03.216Z,38.360596
2019-03-22T10:56:13.317Z,38.360596
2019-03-22T10:56:24.983Z,38.360596
2019-03-22T10:56:34.287Z,38.360596
2019-03-22T10:56:44.297Z,38.360596
2019-03-22T10:56:54.410Z,38.360596
2019-03-22T10:57:04.453Z,38.360596
2019-03-22T10:57:14.497Z,38.360596
2019-03-22T10:57:24.529Z,38.360596
2019-03-22T10:57:34.638Z,38.360596
2019-03-22T10:57:44.629Z,38.360596
2019-03-22T10:57:55.721Z,38.360596
2019-03-22T10:58:19.685Z,38.360596
2019-03-22T10:58:21.076Z,38.360596
2019-03-22T10:58:26.602Z,38.360596
2019-03-22T10:58:36.468Z,38.360596
2019-03-22T10:58:46.407Z,38.360596
2019-03-22T10:58:56.367Z,38.360596
2019-03-22T10:59:06.387Z,38.360596
2019-03-22T10:59:16.361Z,38.360596
2019-03-22T10:59:26.369Z,38.360596
2019-03-22T10:59:36.384Z,38.360596
2019-03-22T10:59:46.369Z,38.360596
2019-03-22T10:59:56.378Z,38.360596
2019-03-22T11:00:06.449Z,38.360596
2019-03-22T11:00:16.478Z,38.360596
2019-03-22T11:00:26.449Z,38.360596
2019-03-22T11:00:36.538Z,38.458252
2019-03-22T11:00:46.537Z,38.458252
2019-03-22T11:00:56.514Z,38.360596
2019-03-22T11:01:08.351Z,38.458252
2019-03-22T11:01:17.437Z,38.458252
2019-03-22T11:01:27.510Z,38.360596
2019-03-22T11:01:48.465Z,38.360596
2019-03-22T11:02:02.491Z,38.360596
2019-03-22T11:02:03.453Z,38.360596
2019-03-22T11:02:10.370Z,38.256836
2019-03-22T11:02:20.389Z,38.256836
2019-03-22T11:02:30.329Z,38.256836
2019-03-22T11:02:40.369Z,38.256836
2019-03-22T11:02:50.388Z,38.360596
2019-03-22T11:03:00.329Z,38.360596
2019-03-22T11:03:10.338Z,38.256836
2019-03-22T11:03:20.289Z,38.360596
2019-03-22T11:03:30.334Z,38.256836
2019-03-22T11:03:40.296Z,38.256836
2019-03-22T11:03:50.371Z,38.256836
2019-03-22T11:04:00.381Z,38.256836
2019-03-22T11:04:20.299Z,38.256836
2019-03-22T11:04:30.269Z,38.15918
2019-03-22T11:04:40.349Z,38.15918
2019-03-22T11:04:50.497Z,38.15918
2019-03-22T11:05:01.886Z,38.15918
2019-03-22T11:05:10.469Z,38.15918
2019-03-22T11:05:20.407Z,38.15918
2019-03-22T11:05:30.469Z,38.15918
2019-03-22T11:05:40.495Z,38.15918
2019-03-22T11:05:50.449Z,38.15918
2019-03-22T11:06:00.469Z,38.15918
2019-03-22T11:06:10.516Z,38.15918
2019-03-22T11:06:25.655Z,38.15918
2019-03-22T11:06:32.481Z,38.05542
2019-03-22T11:06:42.478Z,38.15918
2019-03-22T11:06:52.639Z,38.15918
2019-03-22T11:07:02.697Z,38.15918
2019-03-22T11:07:12.720Z,38.15918
2019-03-22T11:07:22.689Z,38.256836
2019-03-22T11:07:32.717Z,38.256836
2019-03-22T11:07:42.778Z,38.256836
2019-03-22T11:07:52.749Z,38.256836
2019-03-22T11:08:02.784Z,38.256836
2019-03-22T11:08:14.149Z,38.256836
2019-03-22T11:08:24.461Z,38.256836
2019-03-22T11:08:34.470Z,38.256836
2019-03-22T11:08:44.634Z,38.256836
2019-03-22T11:08:54.714Z,38.256836
2019-03-22T11:09:04.713Z,38.256836
2019-03-22T11:09:14.810Z,38.15918
2019-03-22T11:09:24.917Z,38.15918
2019-03-22T11:09:34.933Z,38.15918
2019-03-22T11:09:45.269Z,38.256836
2019-03-22T11:09:55.276Z,38.256836
2019-03-22T11:10:05.329Z,38.256836
2019-03-22T11:10:15.304Z,38.256836
2019-03-22T11:10:25.349Z,38.256836
2019-03-22T11:10:35.389Z,38.256836
2019-03-22T11:10:45.449Z,38.256836
2019-03-22T11:10:55.588Z,38.256836
2019-03-22T11:11:05.689Z,38.256836
2019-03-22T11:11:15.772Z,38.256836
2019-03-22T11:11:25.838Z,38.256836
2019-03-22T11:11:35.927Z,38.256836
2019-03-22T11:11:45.947Z,38.256836
2019-03-22T11:11:56.072Z,38.256836
2019-03-22T11:12:11.834Z,38.256836
2019-03-22T11:12:17.109Z,38.256836
2019-03-22T11:12:27.109Z,38.15918
2019-03-22T11:12:37.093Z,38.15918
2019-03-22T11:12:47.247Z,38.15918
2019-03-22T11:12:57.267Z,38.15918
2019-03-22T11:13:07.352Z,38.15918
2019-03-22T11:13:17.335Z,38.15918
2019-03-22T11:13:27.352Z,38.15918
2019-03-22T11:13:37.358Z,38.15918
2019-03-22T11:13:47.428Z,38.05542
2019-03-22T11:13:57.441Z,38.15918
2019-03-22T11:14:07.587Z,38.15918
2019-03-22T11:14:17.586Z,38.15918
2019-03-22T11:14:27.547Z,38.15918
2019-03-22T11:14:37.597Z,38.15918
2019-03-22T11:14:47.594Z,38.15918
2019-03-22T11:14:57.578Z,38.15918
2019-03-22T11:15:07.649Z,38.256836
2019-03-22T11:15:17.689Z,38.15918
2019-03-22T11:15:27.733Z,38.256836
2019-03-22T11:15:47.894Z,38.15918
2019-03-22T11:15:48.990Z,38.256836
2019-03-22T11:15:58.787Z,38.256836
2019-03-22T11:16:08.809Z,38.15918
2019-03-22T11:16:18.869Z,38.15918
2019-03-22T11:16:28.998Z,38.15918
2019-03-22T11:16:39.189Z,38.15918
2019-03-22T11:16:49.197Z,38.15918
2019-03-22T11:16:59.256Z,38.15918
2019-03-22T11:17:09.358Z,38.15918
2019-03-22T11:17:19.390Z,38.15918
2019-03-22T11:17:29.438Z,38.15918
2019-03-22T11:17:39.429Z,38.15918
2019-03-22T11:17:49.489Z,38.05542
2019-03-22T11:17:59.589Z,38.05542
2019-03-22T11:18:09.557Z,38.15918
2019-03-22T11:18:19.589Z,38.15918
2019-03-22T11:18:37.180Z,38.15918
2019-03-22T11:18:40.639Z,38.15918
2019-03-22T11:18:50.570Z,38.15918
2019-03-22T11:19:00.633Z,38.15918
2019-03-22T11:19:10.714Z,38.15918
2019-03-22T11:19:20.708Z,38.15918
2019-03-22T11:19:30.714Z,38.15918
2019-03-22T11:19:40.742Z,38.15918
2019-03-22T11:19:50.940Z,38.15918
2019-03-22T11:20:00.949Z,38.15918
2019-03-22T11:20:11.029Z,38.15918
2019-03-22T11:20:21.037Z,38.15918
2019-03-22T11:20:31.169Z,38.15918
2019-03-22T11:20:41.217Z,38.15918
2019-03-22T11:20:51.229Z,38.15918
2019-03-22T11:21:05.320Z,38.15918
2019-03-22T11:21:12.193Z,38.15918
2019-03-22T11:21:22.249Z,38.15918
2019-03-22T11:21:32.331Z,38.15918
2019-03-22T11:21:42.469Z,38.15918
2019-03-22T11:21:52.491Z,38.15918
2019-03-22T11:22:02.644Z,38.05542
2019-03-22T11:22:12.689Z,38.05542
2019-03-22T11:22:22.689Z,38.05542
2019-03-22T11:22:32.726Z,38.15918
2019-03-22T11:22:42.669Z,38.05542
2019-03-22T11:22:52.769Z,38.15918
2019-03-22T11:23:02.790Z,38.15918
2019-03-22T11:23:12.798Z,38.05542
2019-03-22T11:23:22.761Z,38.05542
2019-03-22T11:23:32.838Z,38.05542
2019-03-22T11:23:42.856Z,38.05542
2019-03-22T11:23:52.872Z,38.05542
2019-03-22T11:24:02.948Z,38.05542
2019-03-22T11:24:13.109Z,38.05542
2019-03-22T11:24:23.273Z,38.05542
2019-03-22T11:24:33.249Z,38.05542
2019-03-22T11:24:43.352Z,38.15918
2019-03-22T11:24:53.438Z,38.05542
2019-03-22T11:25:04.904Z,38.05542
2019-03-22T11:25:13.616Z,38.05542
2019-03-22T11:25:23.671Z,38.15918
2019-03-22T11:25:33.697Z,38.15918
2019-03-22T11:25:43.829Z,38.15918
2019-03-22T11:26:00.258Z,38.05542
2019-03-22T11:26:04.736Z,38.05542
2019-03-22T11:26:14.756Z,38.05542
2019-03-22T11:26:24.778Z,42.834473
2019-03-22T11:26:34.789Z,40.039062
2019-03-22T11:26:44.789Z,38.140869
2019-03-22T11:26:54.889Z,37.738037
2019-03-22T11:27:05.029Z,37.640381
2019-03-22T11:27:14.989Z,37.640381
2019-03-22T11:27:25.072Z,37.640381
2019-03-22T11:27:35.176Z,37.640381
2019-03-22T11:27:45.288Z,37.738037
2019-03-22T11:27:56.319Z,37.738037
2019-03-22T11:28:06.309Z,37.738037
2019-03-22T11:28:16.388Z,37.640381
2019-03-22T11:28:26.389Z,37.640381
2019-03-22T11:28:36.398Z,37.640381
2019-03-22T11:28:46.401Z,37.738037
2019-03-22T11:28:56.476Z,37.756348
2019-03-22T11:29:06.449Z,37.756348
2019-03-22T11:29:16.558Z,37.756348
2019-03-22T11:29:26.560Z,37.756348
2019-03-22T11:29:36.688Z,37.658691
2019-03-22T11:29:47.209Z,37.756348
2019-03-22T11:29:57.589Z,37.860107
2019-03-22T11:30:07.712Z,37.957764
2019-03-22T11:30:17.989Z,38.05542
2019-03-22T11:30:28.369Z,38.05542
2019-03-22T11:30:38.728Z,37.957764
2019-03-22T11:30:48.868Z,37.860107
2019-03-22T11:31:04.921Z,37.860107
2019-03-22T11:31:12.009Z,37.860107
2019-03-22T11:31:28.297Z,37.756348
2019-03-22T11:31:39.683Z,37.939453
2019-03-22T11:31:44.537Z,37.860107
2019-03-22T11:31:54.809Z,37.640381
2019-03-22T11:32:12.433Z,37.640381
2019-03-22T11:32:16.225Z,37.738037
2019-03-22T11:32:26.469Z,37.738037
2019-03-22T11:32:36.790Z,37.738037
2019-03-22T11:32:47.114Z,37.738037
2019-03-22T11:32:57.389Z,37.738037
2019-03-22T11:33:07.687Z,37.841797
2019-03-22T11:33:18.048Z,37.738037
2019-03-22T11:33:28.400Z,37.738037
2019-03-22T11:33:38.680Z,37.640381
2019-03-22T11:33:49.115Z,37.542725
2019-03-22T11:34:00.327Z,37.658691
2019-03-22T11:34:10.552Z,37.640381
2019-03-22T11:34:20.863Z,37.640381
2019-03-22T11:34:31.271Z,37.640381
2019-03-22T11:34:41.588Z,37.738037
2019-03-22T11:34:51.998Z,37.640381
2019-03-22T11:35:02.349Z,37.738037
2019-03-22T11:35:12.597Z,37.640381
2019-03-22T11:35:22.929Z,37.542725
2019-03-22T11:35:33.269Z,37.640381
2019-03-22T11:35:44.242Z,37.738037
2019-03-22T11:35:54.551Z,37.640381
2019-03-22T11:36:04.858Z,37.640381
2019-03-22T11:36:15.169Z,37.640381
2019-03-22T11:36:25.509Z,37.640381
2019-03-22T11:36:35.850Z,37.640381
2019-03-22T11:36:46.135Z,37.542725
2019-03-22T11:36:57.328Z,37.243652
2019-03-22T11:37:08.539Z,37.139893
2019-03-22T11:37:18.908Z,37.139893
2019-03-22T11:37:29.178Z,37.139893
2019-03-22T11:37:39.518Z,37.042236
2019-03-22T11:37:49.848Z,37.042236
2019-03-22T11:38:00.057Z,37.139893
2019-03-22T11:38:10.391Z,37.255859
2019-03-22T11:38:20.636Z,37.359619
2019-03-22T11:38:30.950Z,37.359619
2019-03-22T11:38:41.250Z,37.359619
2019-03-22T11:38:51.589Z,37.457275
2019-03-22T11:39:01.849Z,37.359619
2019-03-22T11:39:15.631Z,37.359619
2019-03-22T11:39:23.989Z,37.158203
2019-03-22T11:39:34.309Z,37.060547
2019-03-22T11:39:44.750Z,37.255859
2019-03-22T11:39:55.070Z,37.255859
2019-03-22T11:40:05.281Z,37.060547
2019-03-22T11:40:15.488Z,37.060547
2019-03-22T11:40:25.690Z,37.060547
2019-03-22T11:40:36.068Z,37.158203
2019-03-22T11:40:47.399Z,37.255859
2019-03-22T11:40:57.680Z,37.158203
2019-03-22T11:41:07.909Z,37.255859
2019-03-22T11:41:18.238Z,37.255859
2019-03-22T11:41:28.556Z,37.255859
2019-03-22T11:41:38.887Z,37.255859
2019-03-22T11:41:49.208Z,37.255859
2019-03-22T11:41:59.491Z,37.255859
2019-03-22T11:42:09.849Z,37.158203
2019-03-22T11:42:20.151Z,37.255859
2019-03-22T11:42:31.187Z,37.255859